Aviation Digital Data Service (ADDS)

Output produced by METARs form (1317 UTC 08 May 2021)
found at http://aviationweather.gov/metar/data/
 
TAF EPDA 081100Z 0812/0821 27007KT CAVOK